sensor_id;sensor_type;location;lat;lon;timestamp;pressure;altitude;pressure_sealevel;temperature;humidity
21594;BME280;10959;51.328;7.322;2023-05-22T00:00:19;73204.66;;;-147.06;52.94
21594;BME280;10959;51.328;7.322;2023-05-22T00:02:46;73204.66;;;-147.06;53.27
21594;BME280;10959;51.328;7.322;2023-05-22T00:05:14;73212.84;;;-147.06;53.05
21594;BME280;10959;51.328;7.322;2023-05-22T00:07:43;73204.66;;;-147.06;52.95
21594;BME280;10959;51.328;7.322;2023-05-22T00:10:10;73204.66;;;-147.06;52.88
21594;BME280;10959;51.328;7.322;2023-05-22T00:12:37;73208.75;;;-147.06;52.59
21594;BME280;10959;51.328;7.322;2023-05-22T00:15:04;73204.66;;;-147.06;52.47
21594;BME280;10959;51.328;7.322;2023-05-22T00:17:31;73206.69;;;-147.06;52.92
21594;BME280;10959;51.328;7.322;2023-05-22T00:19:58;73200.53;;;-147.06;53.05
21594;BME280;10959;51.328;7.322;2023-05-22T00:22:28;73206.69;;;-147.06;52.86
21594;BME280;10959;51.328;7.322;2023-05-22T00:25:00;73206.69;;;-147.06;52.82
21594;BME280;10959;51.328;7.322;2023-05-22T00:27:27;73204.66;;;-147.06;52.75
21594;BME280;10959;51.328;7.322;2023-05-22T00:29:53;73200.53;;;-147.06;52.79
21594;BME280;10959;51.328;7.322;2023-05-22T00:32:20;73204.66;;;-147.06;52.93
21594;BME280;10959;51.328;7.322;2023-05-22T00:34:49;73206.69;;;-147.06;53.05
21594;BME280;10959;51.328;7.322;2023-05-22T00:37:15;73212.84;;;-147.06;53.56
21594;BME280;10959;51.328;7.322;2023-05-22T00:39:41;73208.75;;;-147.06;53.35
21594;BME280;10959;51.328;7.322;2023-05-22T00:42:09;73214.88;;;-147.06;53.74
21594;BME280;10959;51.328;7.322;2023-05-22T00:44:36;73225.13;;;-147.06;54.20
21594;BME280;10959;51.328;7.322;2023-05-22T00:47:02;73237.41;;;-147.06;54.54
21594;BME280;10959;51.328;7.322;2023-05-22T00:49:30;73239.47;;;-147.06;54.43
21594;BME280;10959;51.328;7.322;2023-05-22T00:51:56;73237.41;;;-147.06;53.92
21594;BME280;10959;51.328;7.322;2023-05-22T00:54:23;73239.47;;;-147.06;53.95
21594;BME280;10959;51.328;7.322;2023-05-22T00:56:49;73231.28;;;-147.06;54.03
21594;BME280;10959;51.328;7.322;2023-05-22T00:59:17;73231.28;;;-147.06;54.18
21594;BME280;10959;51.328;7.322;2023-05-22T01:01:45;73241.50;;;-147.06;54.04
21594;BME280;10959;51.328;7.322;2023-05-22T01:04:11;73241.50;;;-147.06;54.13
21594;BME280;10959;51.328;7.322;2023-05-22T01:06:39;73249.69;;;-147.06;54.38
21594;BME280;10959;51.328;7.322;2023-05-22T01:09:06;73251.75;;;-147.06;54.75
21594;BME280;10959;51.328;7.322;2023-05-22T01:11:37;73266.09;;;-147.06;54.70
21594;BME280;10959;51.328;7.322;2023-05-22T01:14:13;73270.19;;;-147.06;54.36
21594;BME280;10959;51.328;7.322;2023-05-22T01:16:49;73270.19;;;-147.06;54.67
21594;BME280;10959;51.328;7.322;2023-05-22T01:19:30;73270.19;;;-147.06;54.80
21594;BME280;10959;51.328;7.322;2023-05-22T01:22:08;73290.66;;;-147.06;55.05
21594;BME280;10959;51.328;7.322;2023-05-22T01:24:52;73302.94;;;-147.06;55.17
21594;BME280;10959;51.328;7.322;2023-05-22T01:27:36;73298.84;;;-147.06;55.50
21594;BME280;10959;51.328;7.322;2023-05-22T01:30:18;73315.25;;;-147.06;55.58
21594;BME280;10959;51.328;7.322;2023-05-22T01:32:48;73292.72;;;-147.06;55.74
21594;BME280;10959;51.328;7.322;2023-05-22T01:35:16;73294.75;;;-147.06;55.76
21594;BME280;10959;51.328;7.322;2023-05-22T01:37:44;73298.84;;;-147.06;55.93
21594;BME280;10959;51.328;7.322;2023-05-22T01:40:11;73307.06;;;-147.06;56.03
21594;BME280;10959;51.328;7.322;2023-05-22T01:42:38;73302.94;;;-147.06;56.05
21594;BME280;10959;51.328;7.322;2023-05-22T01:45:08;73302.94;;;-147.06;55.97
21594;BME280;10959;51.328;7.322;2023-05-22T01:47:35;73302.94;;;-147.06;55.91
21594;BME280;10959;51.328;7.322;2023-05-22T01:50:03;73311.16;;;-147.06;56.16
21594;BME280;10959;51.328;7.322;2023-05-22T01:52:35;73317.28;;;-147.06;56.29
21594;BME280;10959;51.328;7.322;2023-05-22T01:55:10;73325.50;;;-147.06;55.89
21594;BME280;10959;51.328;7.322;2023-05-22T01:57:42;73321.38;;;-147.06;55.82
21594;BME280;10959;51.328;7.322;2023-05-22T02:00:12;73313.19;;;-147.06;55.54
21594;BME280;10959;51.328;7.322;2023-05-22T02:02:42;73311.16;;;-147.06;55.63
21594;BME280;10959;51.328;7.322;2023-05-22T02:05:12;73315.25;;;-147.06;55.52
21594;BME280;10959;51.328;7.322;2023-05-22T02:07:43;73315.25;;;-147.06;55.68
21594;BME280;10959;51.328;7.322;2023-05-22T02:10:11;73327.53;;;-147.06;55.81
21594;BME280;10959;51.328;7.322;2023-05-22T02:12:38;73327.53;;;-147.06;55.53
21594;BME280;10959;51.328;7.322;2023-05-22T02:15:07;73327.53;;;-147.06;55.28
21594;BME280;10959;51.328;7.322;2023-05-22T02:17:35;73329.59;;;-147.06;54.98
21594;BME280;10959;51.328;7.322;2023-05-22T02:20:05;73331.63;;;-147.06;54.87
21594;BME280;10959;51.328;7.322;2023-05-22T02:22:40;73335.72;;;-147.06;54.76
21594;BME280;10959;51.328;7.322;2023-05-22T02:25:07;73335.72;;;-147.06;54.99
21594;BME280;10959;51.328;7.322;2023-05-22T02:27:38;73339.81;;;-147.06;55.21
21594;BME280;10959;51.328;7.322;2023-05-22T02:30:06;73339.81;;;-147.06;55.15
21594;BME280;10959;51.328;7.322;2023-05-22T02:32:33;73337.78;;;-147.06;55.10
21594;BME280;10959;51.328;7.322;2023-05-22T02:35:00;73348.00;;;-147.06;55.00
21594;BME280;10959;51.328;7.322;2023-05-22T02:37:27;73348.00;;;-147.06;54.83
21594;BME280;10959;51.328;7.322;2023-05-22T02:39:55;73348.00;;;-147.06;54.94
21594;BME280;10959;51.328;7.322;2023-05-22T02:42:21;73348.00;;;-147.06;54.82
21594;BME280;10959;51.328;7.322;2023-05-22T02:44:48;73343.91;;;-147.06;54.76
21594;BME280;10959;51.328;7.322;2023-05-22T02:47:15;73350.06;;;-147.06;54.78
21594;BME280;10959;51.328;7.322;2023-05-22T02:49:41;73345.97;;;-147.06;54.98
21594;BME280;10959;51.328;7.322;2023-05-22T02:52:08;73354.16;;;-147.06;54.78
21594;BME280;10959;51.328;7.322;2023-05-22T02:54:34;73348.00;;;-147.06;55.15
21594;BME280;10959;51.328;7.322;2023-05-22T02:57:03;73348.00;;;-147.06;54.93
21594;BME280;10959;51.328;7.322;2023-05-22T02:59:29;73348.00;;;-147.06;54.84
21594;BME280;10959;51.328;7.322;2023-05-22T03:01:56;73348.00;;;-147.06;54.96
21594;BME280;10959;51.328;7.322;2023-05-22T03:04:23;73348.00;;;-147.06;55.31
21594;BME280;10959;51.328;7.322;2023-05-22T03:06:49;73360.31;;;-147.06;55.42
21594;BME280;10959;51.328;7.322;2023-05-22T03:09:16;73364.41;;;-147.06;55.42
21594;BME280;10959;51.328;7.322;2023-05-22T03:11:44;73368.50;;;-147.06;55.30
21594;BME280;10959;51.328;7.322;2023-05-22T03:14:12;73368.50;;;-147.06;55.18
21594;BME280;10959;51.328;7.322;2023-05-22T03:16:38;73366.44;;;-147.06;55.21
21594;BME280;10959;51.328;7.322;2023-05-22T03:19:10;73378.75;;;-147.06;55.33
21594;BME280;10959;51.328;7.322;2023-05-22T03:21:36;73372.59;;;-147.06;55.47
21594;BME280;10959;51.328;7.322;2023-05-22T03:24:03;73374.66;;;-147.06;55.47
21594;BME280;10959;51.328;7.322;2023-05-22T03:26:30;73376.69;;;-147.06;55.57
21594;BME280;10959;51.328;7.322;2023-05-22T03:28:56;73378.75;;;-147.06;55.84
21594;BME280;10959;51.328;7.322;2023-05-22T03:31:26;73388.97;;;-147.06;55.90
21594;BME280;10959;51.328;7.322;2023-05-22T03:33:53;73384.88;;;-147.06;56.25
21594;BME280;10959;51.328;7.322;2023-05-22T03:36:20;73388.97;;;-147.06;56.38
21594;BME280;10959;51.328;7.322;2023-05-22T03:38:47;73391.03;;;-147.06;56.14
21594;BME280;10959;51.328;7.322;2023-05-22T03:41:13;73393.06;;;-147.06;55.93
21594;BME280;10959;51.328;7.322;2023-05-22T03:43:40;73397.19;;;-147.06;55.67
21594;BME280;10959;51.328;7.322;2023-05-22T03:46:06;73388.97;;;-147.06;55.60
21594;BME280;10959;51.328;7.322;2023-05-22T03:48:37;73393.06;;;-147.06;55.36
21594;BME280;10959;51.328;7.322;2023-05-22T03:51:03;73397.19;;;-147.06;55.61
21594;BME280;10959;51.328;7.322;2023-05-22T03:53:30;73397.19;;;-147.06;55.77
21594;BME280;10959;51.328;7.322;2023-05-22T03:55:57;73393.06;;;-147.06;55.78
21594;BME280;10959;51.328;7.322;2023-05-22T03:58:23;73397.19;;;-147.06;55.89
21594;BME280;10959;51.328;7.322;2023-05-22T04:00:50;73401.28;;;-147.06;55.60
21594;BME280;10959;51.328;7.322;2023-05-22T04:03:16;73401.28;;;-147.06;55.38
21594;BME280;10959;51.328;7.322;2023-05-22T04:05:44;73393.06;;;-147.06;55.42
21594;BME280;10959;51.328;7.322;2023-05-22T04:08:11;73401.28;;;-147.06;55.67
21594;BME280;10959;51.328;7.322;2023-05-22T04:10:38;73401.28;;;-147.06;55.38
21594;BME280;10959;51.328;7.322;2023-05-22T04:13:04;73393.06;;;-147.06;55.39
21594;BME280;10959;51.328;7.322;2023-05-22T04:15:31;73401.28;;;-147.06;55.33
21594;BME280;10959;51.328;7.322;2023-05-22T04:17:59;73397.19;;;-147.06;55.60
21594;BME280;10959;51.328;7.322;2023-05-22T04:20:25;73393.06;;;-147.06;55.50
21594;BME280;10959;51.328;7.322;2023-05-22T04:22:53;73395.13;;;-147.06;55.44
21594;BME280;10959;51.328;7.322;2023-05-22T04:25:20;73393.06;;;-147.06;55.33
21594;BME280;10959;51.328;7.322;2023-05-22T04:27:46;73384.88;;;-147.06;55.62
21594;BME280;10959;51.328;7.322;2023-05-22T04:30:13;73391.03;;;-147.06;55.65
21594;BME280;10959;51.328;7.322;2023-05-22T04:32:41;73401.28;;;-147.06;55.83
21594;BME280;10959;51.328;7.322;2023-05-22T04:35:08;73393.06;;;-147.06;56.00
21594;BME280;10959;51.328;7.322;2023-05-22T04:37:36;73399.22;;;-147.06;56.17
21594;BME280;10959;51.328;7.322;2023-05-22T04:40:08;73401.28;;;-147.06;55.61
21594;BME280;10959;51.328;7.322;2023-05-22T04:42:36;73388.97;;;-147.06;55.69
21594;BME280;10959;51.328;7.322;2023-05-22T04:45:03;73391.03;;;-147.06;55.64
21594;BME280;10959;51.328;7.322;2023-05-22T04:47:29;73384.88;;;-147.06;55.77
21594;BME280;10959;51.328;7.322;2023-05-22T04:49:56;73376.69;;;-147.06;55.56
21594;BME280;10959;51.328;7.322;2023-05-22T04:52:24;73374.66;;;-147.06;55.79
21594;BME280;10959;51.328;7.322;2023-05-22T04:54:51;73368.50;;;-147.06;55.77
21594;BME280;10959;51.328;7.322;2023-05-22T04:57:20;73364.41;;;-147.06;55.77
21594;BME280;10959;51.328;7.322;2023-05-22T04:59:50;73356.22;;;-147.06;55.51
21594;BME280;10959;51.328;7.322;2023-05-22T05:02:17;73356.22;;;-147.06;55.78
21594;BME280;10959;51.328;7.322;2023-05-22T05:04:44;73352.13;;;-147.06;55.81
21594;BME280;10959;51.328;7.322;2023-05-22T05:07:11;73345.97;;;-147.06;56.10
21594;BME280;10959;51.328;7.322;2023-05-22T05:09:37;73343.91;;;-147.06;56.08
21594;BME280;10959;51.328;7.322;2023-05-22T05:12:04;73335.72;;;-147.06;56.07
21594;BME280;10959;51.328;7.322;2023-05-22T05:14:32;73339.81;;;-147.06;55.81
21594;BME280;10959;51.328;7.322;2023-05-22T05:16:58;73327.53;;;-147.06;55.83
21594;BME280;10959;51.328;7.322;2023-05-22T05:19:26;73325.50;;;-147.06;55.95
21594;BME280;10959;51.328;7.322;2023-05-22T05:21:52;73315.25;;;-147.06;55.72
21594;BME280;10959;51.328;7.322;2023-05-22T05:24:19;73307.06;;;-147.06;55.43
21594;BME280;10959;51.328;7.322;2023-05-22T05:26:46;73307.06;;;-147.06;55.60
21594;BME280;10959;51.328;7.322;2023-05-22T05:29:12;73298.84;;;-147.06;55.75
21594;BME280;10959;51.328;7.322;2023-05-22T05:31:40;73278.38;;;-147.06;55.49
21594;BME280;10959;51.328;7.322;2023-05-22T05:34:06;73272.22;;;-147.06;55.61
21594;BME280;10959;51.328;7.322;2023-05-22T05:36:33;73257.91;;;-147.06;55.80
21594;BME280;10959;51.328;7.322;2023-05-22T05:38:59;73249.69;;;-147.06;55.40
21594;BME280;10959;51.328;7.322;2023-05-22T05:41:26;73247.66;;;-147.06;55.35
21594;BME280;10959;51.328;7.322;2023-05-22T05:43:52;73233.31;;;-147.06;55.55
21594;BME280;10959;51.328;7.322;2023-05-22T05:46:21;73225.13;;;-147.06;55.35
21594;BME280;10959;51.328;7.322;2023-05-22T05:48:49;73221.03;;;-147.06;55.30
21594;BME280;10959;51.328;7.322;2023-05-22T05:51:16;73221.03;;;-147.06;55.40
21594;BME280;10959;51.328;7.322;2023-05-22T05:53:42;73208.75;;;-147.06;55.14
21594;BME280;10959;51.328;7.322;2023-05-22T05:56:09;73208.75;;;-147.06;55.11
21594;BME280;10959;51.328;7.322;2023-05-22T05:58:35;73192.34;;;-147.06;55.23
21594;BME280;10959;51.328;7.322;2023-05-22T06:01:02;73190.31;;;-147.06;55.40
21594;BME280;10959;51.328;7.322;2023-05-22T06:03:29;73182.13;;;-147.06;55.17
21594;BME280;10959;51.328;7.322;2023-05-22T06:05:58;73173.91;;;-147.06;55.24
21594;BME280;10959;51.328;7.322;2023-05-22T06:08:25;73175.97;;;-147.06;55.01
21594;BME280;10959;51.328;7.322;2023-05-22T06:10:52;73167.78;;;-147.06;55.56
21594;BME280;10959;51.328;7.322;2023-05-22T06:13:18;73163.69;;;-147.06;56.00
21594;BME280;10959;51.328;7.322;2023-05-22T06:15:45;73163.69;;;-147.06;56.09
21594;BME280;10959;51.328;7.322;2023-05-22T06:18:12;73139.09;;;-147.06;55.90
21594;BME280;10959;51.328;7.322;2023-05-22T06:20:38;73118.63;;;-147.06;55.84
21594;BME280;10959;51.328;7.322;2023-05-22T06:23:06;73106.34;;;-147.06;56.20
21594;BME280;10959;51.328;7.322;2023-05-22T06:25:33;73094.03;;;-147.06;55.75
21594;BME280;10959;51.328;7.322;2023-05-22T06:28:00;73085.84;;;-147.06;56.11
21594;BME280;10959;51.328;7.322;2023-05-22T06:30:27;73073.56;;;-147.06;56.04
21594;BME280;10959;51.328;7.322;2023-05-22T06:32:54;73065.38;;;-147.06;56.04
21594;BME280;10959;51.328;7.322;2023-05-22T06:35:20;73057.19;;;-147.06;55.74
21594;BME280;10959;51.328;7.322;2023-05-22T06:37:47;73032.59;;;-147.06;55.28
21594;BME280;10959;51.328;7.322;2023-05-22T06:40:15;73012.13;;;-147.06;55.05
21594;BME280;10959;51.328;7.322;2023-05-22T06:42:42;72991.63;;;-147.06;54.58
21594;BME280;10959;51.328;7.322;2023-05-22T06:45:09;72979.34;;;-147.06;54.26
21594;BME280;10959;51.328;7.322;2023-05-22T06:47:36;72981.41;;;-147.06;53.92
21594;BME280;10959;51.328;7.322;2023-05-22T06:50:03;72979.34;;;-147.06;53.44
21594;BME280;10959;51.328;7.322;2023-05-22T06:52:30;72981.41;;;-147.06;53.35
21594;BME280;10959;51.328;7.322;2023-05-22T06:54:57;72971.16;;;-147.06;53.30
21594;BME280;10959;51.328;7.322;2023-05-22T06:57:30;72969.09;;;-147.06;53.21
21594;BME280;10959;51.328;7.322;2023-05-22T06:59:57;72962.97;;;-147.06;53.02
21594;BME280;10959;51.328;7.322;2023-05-22T07:02:23;72950.69;;;-147.06;52.76
21594;BME280;10959;51.328;7.322;2023-05-22T07:04:50;72944.53;;;-147.06;52.78
21594;BME280;10959;51.328;7.322;2023-05-22T07:07:17;72944.53;;;-147.06;52.89
21594;BME280;10959;51.328;7.322;2023-05-22T07:09:44;72938.38;;;-147.06;52.76
21594;BME280;10959;51.328;7.322;2023-05-22T07:12:11;72922.00;;;-147.06;52.70
21594;BME280;10959;51.328;7.322;2023-05-22T07:14:39;72891.28;;;-147.06;52.30
21594;BME280;10959;51.328;7.322;2023-05-22T07:17:05;72864.66;;;-147.06;52.00
21594;BME280;10959;51.328;7.322;2023-05-22T07:19:32;72829.84;;;-147.06;51.59
21594;BME280;10959;51.328;7.322;2023-05-22T07:21:59;72815.50;;;-147.06;50.81
21594;BME280;10959;51.328;7.322;2023-05-22T07:24:26;72795.03;;;-147.06;51.26
21594;BME280;10959;51.328;7.322;2023-05-22T07:26:52;72790.94;;;-147.06;50.90
21594;BME280;10959;51.328;7.322;2023-05-22T07:29:19;72774.56;;;-147.06;51.15
21594;BME280;10959;51.328;7.322;2023-05-22T07:31:46;72741.78;;;-147.06;50.78
21594;BME280;10959;51.328;7.322;2023-05-22T07:34:13;72727.44;;;-147.06;50.71
21594;BME280;10959;51.328;7.322;2023-05-22T07:36:39;72704.91;;;-147.06;50.27
21594;BME280;10959;51.328;7.322;2023-05-22T07:39:06;72696.72;;;-147.06;49.91
21594;BME280;10959;51.328;7.322;2023-05-22T07:41:33;72684.44;;;-147.06;49.92
21594;BME280;10959;51.328;7.322;2023-05-22T07:44:00;72668.06;;;-147.06;49.49
21594;BME280;10959;51.328;7.322;2023-05-22T07:46:26;72661.91;;;-147.06;49.15
21594;BME280;10959;51.328;7.322;2023-05-22T07:48:54;72655.78;;;-147.06;49.10
21594;BME280;10959;51.328;7.322;2023-05-22T07:51:20;72647.56;;;-147.06;48.89
21594;BME280;10959;51.328;7.322;2023-05-22T07:53:47;72639.38;;;-147.06;49.07
21594;BME280;10959;51.328;7.322;2023-05-22T07:56:13;72623.00;;;-147.06;48.83
21594;BME280;10959;51.328;7.322;2023-05-22T07:58:41;72598.44;;;-147.06;48.49
21594;BME280;10959;51.328;7.322;2023-05-22T08:01:08;72577.94;;;-147.06;47.55
21594;BME280;10959;51.328;7.322;2023-05-22T08:03:35;72561.56;;;-147.06;47.80
21594;BME280;10959;51.328;7.322;2023-05-22T08:06:03;72559.53;;;-147.06;47.30
21594;BME280;10959;51.328;7.322;2023-05-22T08:08:30;72553.38;;;-147.06;47.70
21594;BME280;10959;51.328;7.322;2023-05-22T08:10:56;72549.28;;;-147.06;47.37
21594;BME280;10959;51.328;7.322;2023-05-22T08:13:23;72557.47;;;-147.06;47.39
21594;BME280;10959;51.328;7.322;2023-05-22T08:15:50;72559.53;;;-147.06;47.11
21594;BME280;10959;51.328;7.322;2023-05-22T08:18:18;72549.28;;;-147.06;47.25
21594;BME280;10959;51.328;7.322;2023-05-22T08:20:44;72528.81;;;-147.06;46.69
21594;BME280;10959;51.328;7.322;2023-05-22T08:23:13;72514.47;;;-147.06;46.45
21594;BME280;10959;51.328;7.322;2023-05-22T08:25:40;72512.41;;;-147.06;46.79
21594;BME280;10959;51.328;7.322;2023-05-22T08:28:06;72504.22;;;-147.06;46.91
21594;BME280;10959;51.328;7.322;2023-05-22T08:30:33;72516.53;;;-147.06;45.69
21594;BME280;10959;51.328;7.322;2023-05-22T08:33:01;72520.63;;;-147.06;46.08
21594;BME280;10959;51.328;7.322;2023-05-22T08:35:27;72508.31;;;-147.06;45.57
21594;BME280;10959;51.328;7.322;2023-05-22T08:37:54;72491.94;;;-147.06;45.69
21594;BME280;10959;51.328;7.322;2023-05-22T08:40:27;72506.28;;;-147.06;45.07
21594;BME280;10959;51.328;7.322;2023-05-22T08:42:57;72498.09;;;-147.06;44.39
21594;BME280;10959;51.328;7.322;2023-05-22T08:45:24;72494.00;;;-147.06;45.00
21594;BME280;10959;51.328;7.322;2023-05-22T08:47:58;72487.84;;;-147.06;44.30
21594;BME280;10959;51.328;7.322;2023-05-22T08:50:27;72465.31;;;-147.06;44.90
21594;BME280;10959;51.328;7.322;2023-05-22T08:52:54;72428.47;;;-147.06;45.32
21594;BME280;10959;51.328;7.322;2023-05-22T08:55:23;72401.84;;;-147.06;44.84
21594;BME280;10959;51.328;7.322;2023-05-22T08:57:51;72369.06;;;-147.06;44.58
21594;BME280;10959;51.328;7.322;2023-05-22T09:00:19;72364.97;;;-147.06;43.27
21594;BME280;10959;51.328;7.322;2023-05-22T09:02:46;72367.03;;;-147.06;43.41
21594;BME280;10959;51.328;7.322;2023-05-22T09:05:14;72381.38;;;-147.06;43.95
21594;BME280;10959;51.328;7.322;2023-05-22T09:07:41;72373.19;;;-147.06;44.07
21594;BME280;10959;51.328;7.322;2023-05-22T09:10:08;72369.06;;;-147.06;44.08
21594;BME280;10959;51.328;7.322;2023-05-22T09:12:36;72344.50;;;-147.06;44.48
21594;BME280;10959;51.328;7.322;2023-05-22T09:15:07;72348.59;;;-147.06;44.00
21594;BME280;10959;51.328;7.322;2023-05-22T09:17:37;72319.94;;;-147.06;43.88
21594;BME280;10959;51.328;7.322;2023-05-22T09:20:04;72315.84;;;-147.06;43.38
21594;BME280;10959;51.328;7.322;2023-05-22T09:22:35;72319.94;;;-147.06;42.70
21594;BME280;10959;51.328;7.322;2023-05-22T09:25:03;72328.13;;;-147.06;43.47
21594;BME280;10959;51.328;7.322;2023-05-22T09:27:31;72332.22;;;-147.06;42.83
21594;BME280;10959;51.328;7.322;2023-05-22T09:29:59;72311.75;;;-147.06;42.59
21594;BME280;10959;51.328;7.322;2023-05-22T09:32:28;72348.59;;;-147.06;42.56
21594;BME280;10959;51.328;7.322;2023-05-22T09:35:01;72373.19;;;-147.06;43.25
21594;BME280;10959;51.328;7.322;2023-05-22T09:37:32;72356.78;;;-147.06;43.34
21594;BME280;10959;51.328;7.322;2023-05-22T09:40:03;72348.59;;;-147.06;43.56
21594;BME280;10959;51.328;7.322;2023-05-22T09:42:31;72332.22;;;-147.06;43.47
21594;BME280;10959;51.328;7.322;2023-05-22T09:45:03;72346.56;;;-147.06;44.55
21594;BME280;10959;51.328;7.322;2023-05-22T09:47:29;72332.22;;;-147.06;43.37
21594;BME280;10959;51.328;7.322;2023-05-22T09:49:56;72342.47;;;-147.06;43.70
21594;BME280;10959;51.328;7.322;2023-05-22T09:52:23;72332.22;;;-147.06;43.92
21594;BME280;10959;51.328;7.322;2023-05-22T09:54:52;72315.84;;;-147.06;43.99
21594;BME280;10959;51.328;7.322;2023-05-22T09:57:20;72383.41;;;-147.06;43.45
21594;BME280;10959;51.328;7.322;2023-05-22T09:59:49;72405.94;;;-147.06;43.78
21594;BME280;10959;51.328;7.322;2023-05-22T10:02:21;72397.75;;;-147.06;43.48
21594;BME280;10959;51.328;7.322;2023-05-22T10:04:48;72352.69;;;-147.06;43.71
21594;BME280;10959;51.328;7.322;2023-05-22T10:07:17;72367.03;;;-147.06;43.25
21594;BME280;10959;51.328;7.322;2023-05-22T10:09:49;72436.66;;;-147.06;44.00
21594;BME280;10959;51.328;7.322;2023-05-22T10:12:16;72426.41;;;-147.06;44.46
21594;BME280;10959;51.328;7.322;2023-05-22T10:14:46;72463.28;;;-147.06;44.60
21594;BME280;10959;51.328;7.322;2023-05-22T10:17:14;72491.94;;;-147.06;44.83
21594;BME280;10959;51.328;7.322;2023-05-22T10:19:42;72451.00;;;-147.06;44.53
21594;BME280;10959;51.328;7.322;2023-05-22T10:22:10;72389.56;;;-147.06;45.06
21594;BME280;10959;51.328;7.322;2023-05-22T10:24:45;72377.28;;;-147.06;44.11
21594;BME280;10959;51.328;7.322;2023-05-22T10:27:12;72381.38;;;-147.06;44.06
21594;BME280;10959;51.328;7.322;2023-05-22T10:29:43;72428.47;;;-147.06;44.32
21594;BME280;10959;51.328;7.322;2023-05-22T10:32:13;72434.59;;;-147.06;44.04
21594;BME280;10959;51.328;7.322;2023-05-22T10:34:50;72426.41;;;-147.06;43.92
21594;BME280;10959;51.328;7.322;2023-05-22T10:37:35;72434.59;;;-147.06;43.86
21594;BME280;10959;51.328;7.322;2023-05-22T10:40:08;72451.00;;;-147.06;43.92
21594;BME280;10959;51.328;7.322;2023-05-22T10:42:36;72430.50;;;-147.06;43.75
21594;BME280;10959;51.328;7.322;2023-05-22T10:45:05;72410.03;;;-147.06;43.79
21594;BME280;10959;51.328;7.322;2023-05-22T10:47:32;72407.97;;;-147.06;43.50
21594;BME280;10959;51.328;7.322;2023-05-22T10:50:06;72381.38;;;-147.06;43.40
21594;BME280;10959;51.328;7.322;2023-05-22T10:52:33;72385.47;;;-147.06;43.39
21594;BME280;10959;51.328;7.322;2023-05-22T10:55:04;72360.88;;;-147.06;43.32
21594;BME280;10959;51.328;7.322;2023-05-22T10:57:32;72307.66;;;-147.06;42.64
21594;BME280;10959;51.328;7.322;2023-05-22T11:00:07;72307.66;;;-147.06;42.79
21594;BME280;10959;51.328;7.322;2023-05-22T11:02:38;72319.94;;;-147.06;42.41
21594;BME280;10959;51.328;7.322;2023-05-22T11:05:32;72348.59;;;-147.06;42.48
21594;BME280;10959;51.328;7.322;2023-05-22T11:10:56;72309.69;;;-147.06;42.27
21594;BME280;10959;51.328;7.322;2023-05-22T11:13:24;72336.31;;;-147.06;42.36
21594;BME280;10959;51.328;7.322;2023-05-22T11:15:53;72324.03;;;-147.06;41.69
21594;BME280;10959;51.328;7.322;2023-05-22T11:18:20;72324.03;;;-147.06;42.45
21594;BME280;10959;51.328;7.322;2023-05-22T11:20:48;72278.97;;;-147.06;41.43
21594;BME280;10959;51.328;7.322;2023-05-22T11:23:17;72287.16;;;-147.06;41.31
21594;BME280;10959;51.328;7.322;2023-05-22T11:25:43;72299.47;;;-147.06;41.31
21594;BME280;10959;51.328;7.322;2023-05-22T11:28:10;72274.88;;;-147.06;42.17
21594;BME280;10959;51.328;7.322;2023-05-22T11:30:38;72254.41;;;-147.06;41.51
21594;BME280;10959;51.328;7.322;2023-05-22T11:33:05;72225.75;;;-147.06;41.20
21594;BME280;10959;51.328;7.322;2023-05-22T11:35:32;72195.03;;;-147.06;40.96
21594;BME280;10959;51.328;7.322;2023-05-22T11:38:03;72172.50;;;-147.06;40.49
21594;BME280;10959;51.328;7.322;2023-05-22T11:40:30;72147.94;;;-147.06;40.61
21594;BME280;10959;51.328;7.322;2023-05-22T11:42:56;72160.22;;;-147.06;40.80
21594;BME280;10959;51.328;7.322;2023-05-22T11:45:23;72229.84;;;-147.06;40.18
21594;BME280;10959;51.328;7.322;2023-05-22T11:47:50;72262.59;;;-147.06;40.87
21594;BME280;10959;51.328;7.322;2023-05-22T11:50:16;72274.88;;;-147.06;41.08
21594;BME280;10959;51.328;7.322;2023-05-22T11:52:43;72262.59;;;-147.06;40.81
21594;BME280;10959;51.328;7.322;2023-05-22T11:55:11;72242.13;;;-147.06;41.30
21594;BME280;10959;51.328;7.322;2023-05-22T11:57:38;72233.94;;;-147.06;40.98
21594;BME280;10959;51.328;7.322;2023-05-22T12:00:05;72184.78;;;-147.06;41.38
21594;BME280;10959;51.328;7.322;2023-05-22T12:02:32;72184.78;;;-147.06;39.94
21594;BME280;10959;51.328;7.322;2023-05-22T12:04:59;72168.41;;;-147.06;39.86
21594;BME280;10959;51.328;7.322;2023-05-22T12:07:26;72143.84;;;-147.06;40.03
21594;BME280;10959;51.328;7.322;2023-05-22T12:09:55;72139.75;;;-147.06;39.51
21594;BME280;10959;51.328;7.322;2023-05-22T12:12:23;72143.84;;;-147.06;39.92
21594;BME280;10959;51.328;7.322;2023-05-22T12:14:50;72139.75;;;-147.06;40.04
21594;BME280;10959;51.328;7.322;2023-05-22T12:17:16;72147.94;;;-147.06;39.91
21594;BME280;10959;51.328;7.322;2023-05-22T12:19:44;72133.59;;;-147.06;40.47
21594;BME280;10959;51.328;7.322;2023-05-22T12:22:11;72147.94;;;-147.06;39.97
21594;BME280;10959;51.328;7.322;2023-05-22T12:24:38;72170.44;;;-147.06;39.81
21594;BME280;10959;51.328;7.322;2023-05-22T12:27:07;72233.94;;;-147.06;39.70
21594;BME280;10959;51.328;7.322;2023-05-22T12:29:35;72235.97;;;-147.06;40.92
21594;BME280;10959;51.328;7.322;2023-05-22T12:32:03;72223.69;;;-147.06;40.64
21594;BME280;10959;51.328;7.322;2023-05-22T12:34:32;72229.84;;;-147.06;40.91
21594;BME280;10959;51.328;7.322;2023-05-22T12:36:59;72242.13;;;-147.06;40.52
21594;BME280;10959;51.328;7.322;2023-05-22T12:39:27;72225.75;;;-147.06;40.93
21594;BME280;10959;51.328;7.322;2023-05-22T12:41:53;72254.41;;;-147.06;39.99
21594;BME280;10959;51.328;7.322;2023-05-22T12:44:20;72240.06;;;-147.06;40.38
21594;BME280;10959;51.328;7.322;2023-05-22T12:46:47;72246.22;;;-147.06;39.97